Time;durP1;ratioP1;P1;durP2;ratioP2;P2;SDS_P1;SDS_P2;PMS_P1;PMS_P2;Temp;Humidity;BMP_temperature;BMP_pressure;BME280_temperature;BME280_humidity;BME280_pressure;Samples;Min_cycle;Max_cycle;Signal;HPM_P1;HPM_P2
2023/01/27 00:02:19;;;;;;;;;;;4.70;99.90;;;;;;5055712;28;20011;-62
2023/01/27 00:04:44;;;;;;;;;;;4.60;99.90;;;;;;5048495;28;19917;-62
2023/01/27 00:07:09;;;;;;;;;;;4.70;99.90;;;;;;5052061;28;19916;-62
2023/01/27 00:09:35;;;;;;;;;;;4.70;99.90;;;;;;5050210;28;19928;-61
2023/01/27 00:14:45;;;;;;;;;;;4.60;99.90;;;;;;5046280;28;19924;-62
2023/01/27 00:17:10;;;;;;;;;;;4.60;99.90;;;;;;5048340;28;19912;-59
2023/01/27 00:19:35;;;;;;;;;;;4.60;99.90;;;;;;5038755;28;20051;-62
2023/01/27 00:24:45;;;;;;;;;;;4.60;99.90;;;;;;5048862;28;19970;-62
2023/01/27 00:27:11;;;;;;;;;;;4.60;99.90;;;;;;5057866;28;20426;-60
2023/01/27 00:29:37;;;;;;;;;;;4.60;99.90;;;;;;5049687;28;20457;-62
2023/01/27 00:34:47;;;;;;;;;;;4.50;99.90;;;;;;5053987;28;20404;-62
2023/01/27 00:37:12;;;;;;;;;;;4.40;99.90;;;;;;5055428;28;20046;-62
2023/01/27 00:39:38;;;;;;;;;;;4.40;99.90;;;;;;5048868;28;19921;-62
2023/01/27 00:42:04;;;;;;;;;;;4.40;99.90;;;;;;5033408;28;19921;-62
2023/01/27 00:44:29;;;;;;;;;;;4.40;99.90;;;;;;5047656;28;20302;-63
2023/01/27 00:46:55;;;;;;;;;;;4.30;99.90;;;;;;5048662;28;19917;-61
2023/01/27 00:49:20;;;;;;;;;;;4.30;99.90;;;;;;5047364;28;20003;-61
2023/01/27 00:51:45;;;;;;;;;;;4.30;99.90;;;;;;5047240;28;20375;-63
2023/01/27 00:54:11;;;;;;;;;;;4.30;99.90;;;;;;5047600;28;20275;-63
2023/01/27 00:56:37;;;;;;;;;;;4.30;99.90;;;;;;5052629;28;19916;-62
2023/01/27 00:59:02;;;;;;;;;;;4.30;99.90;;;;;;5048358;28;20005;-63
2023/01/27 01:01:28;;;;;;;;;;;4.30;99.90;;;;;;5049995;28;20274;-64
2023/01/27 01:03:54;;;;;;;;;;;4.30;99.90;;;;;;5055031;28;19958;-64
2023/01/27 01:06:19;;;;;;;;;;;4.30;99.90;;;;;;5053541;28;20363;-61
2023/01/27 01:08:45;;;;;;;;;;;4.30;99.90;;;;;;5046958;28;19913;-64
2023/01/27 01:11:12;;;;;;;;;;;4.30;99.90;;;;;;5046812;28;19944;-62
2023/01/27 01:13:38;;;;;;;;;;;4.30;99.90;;;;;;5053293;28;20007;-62
2023/01/27 01:16:07;;;;;;;;;;;4.30;99.90;;;;;;5050723;28;20454;-64
2023/01/27 01:18:33;;;;;;;;;;;4.30;99.90;;;;;;5047023;28;19920;-64
2023/01/27 01:20:59;;;;;;;;;;;4.30;99.90;;;;;;5050143;28;19971;-64
2023/01/27 01:23:25;;;;;;;;;;;4.30;99.90;;;;;;5049265;28;20341;-60
2023/01/27 01:25:54;;;;;;;;;;;4.30;99.90;;;;;;5048777;28;19913;-63
2023/01/27 01:28:19;;;;;;;;;;;4.30;99.90;;;;;;5051844;28;19925;-62
2023/01/27 01:30:45;;;;;;;;;;;4.30;99.90;;;;;;5047865;28;19912;-59
2023/01/27 01:33:10;;;;;;;;;;;4.30;99.90;;;;;;5052760;28;19916;-61
2023/01/27 01:35:36;;;;;;;;;;;4.30;99.90;;;;;;5047345;28;19916;-63
2023/01/27 01:38:02;;;;;;;;;;;4.30;99.90;;;;;;5051773;28;20020;-63
2023/01/27 01:40:27;;;;;;;;;;;4.30;99.90;;;;;;5050924;28;19995;-60
2023/01/27 01:43:00;;;;;;;;;;;4.30;99.90;;;;;;5053527;28;20382;-61
2023/01/27 01:45:35;;;;;;;;;;;4.30;99.90;;;;;;5031922;28;20307;-61
2023/01/27 01:48:07;;;;;;;;;;;4.30;99.90;;;;;;5048705;28;19923;-63
2023/01/27 01:50:34;;;;;;;;;;;4.30;99.90;;;;;;5048382;28;19931;-64
2023/01/27 01:53:00;;;;;;;;;;;4.30;99.90;;;;;;5043768;28;19919;-63
2023/01/27 01:55:25;;;;;;;;;;;4.20;99.90;;;;;;5051213;28;19913;-63
2023/01/27 01:57:51;;;;;;;;;;;4.30;99.90;;;;;;5051125;28;19920;-63
2023/01/27 02:00:16;;;;;;;;;;;4.30;99.90;;;;;;5053085;28;20724;-62
2023/01/27 02:02:42;;;;;;;;;;;4.20;99.90;;;;;;5054099;28;19919;-61
2023/01/27 02:05:08;;;;;;;;;;;4.20;99.90;;;;;;5049814;28;19913;-63
2023/01/27 02:07:37;;;;;;;;;;;4.20;99.90;;;;;;5057174;28;20337;-62
2023/01/27 02:10:03;;;;;;;;;;;4.20;99.90;;;;;;5050314;28;19916;-61
2023/01/27 02:12:28;;;;;;;;;;;4.20;99.90;;;;;;5050671;28;19912;-61
2023/01/27 02:14:54;;;;;;;;;;;4.20;99.90;;;;;;5058535;28;20290;-62
2023/01/27 02:17:19;;;;;;;;;;;4.20;99.90;;;;;;5056661;28;19920;-64
2023/01/27 02:19:51;;;;;;;;;;;4.20;99.90;;;;;;5051892;28;19917;-64
2023/01/27 02:22:21;;;;;;;;;;;4.20;99.90;;;;;;5051828;28;19917;-64
2023/01/27 02:24:49;;;;;;;;;;;4.20;99.90;;;;;;5055078;28;19917;-64
2023/01/27 02:27:15;;;;;;;;;;;4.20;99.90;;;;;;5055765;28;20420;-64
2023/01/27 02:29:40;;;;;;;;;;;4.20;99.90;;;;;;5056172;28;21396;-63
2023/01/27 02:32:06;;;;;;;;;;;4.20;99.90;;;;;;5051735;28;20378;-64
2023/01/27 02:34:34;;;;;;;;;;;4.20;99.90;;;;;;5057192;28;19916;-64
2023/01/27 02:37:03;;;;;;;;;;;4.20;99.90;;;;;;5051391;28;19921;-64
2023/01/27 02:39:32;;;;;;;;;;;4.20;99.90;;;;;;5055400;28;19921;-64
2023/01/27 02:41:57;;;;;;;;;;;4.20;99.90;;;;;;5054052;28;19913;-64
2023/01/27 02:44:23;;;;;;;;;;;4.20;99.90;;;;;;5056437;28;19920;-64
2023/01/27 02:46:49;;;;;;;;;;;4.20;99.90;;;;;;5048981;28;19997;-64
2023/01/27 02:49:14;;;;;;;;;;;4.20;99.90;;;;;;5048701;28;19917;-64
2023/01/27 02:51:39;;;;;;;;;;;4.20;99.90;;;;;;5054875;28;20016;-64
2023/01/27 02:54:05;;;;;;;;;;;4.20;99.90;;;;;;5063476;28;19958;-61
2023/01/27 02:56:30;;;;;;;;;;;4.20;99.90;;;;;;5048994;28;19982;-63
2023/01/27 02:58:56;;;;;;;;;;;4.20;99.90;;;;;;5050896;28;19959;-64
2023/01/27 03:01:23;;;;;;;;;;;4.20;99.90;;;;;;5050217;28;19996;-64
2023/01/27 03:03:50;;;;;;;;;;;4.20;99.90;;;;;;5061267;28;19919;-64
2023/01/27 03:06:16;;;;;;;;;;;4.20;99.90;;;;;;5051457;28;19927;-64
2023/01/27 03:08:41;;;;;;;;;;;4.20;99.90;;;;;;5050912;28;19913;-64
2023/01/27 03:11:07;;;;;;;;;;;4.20;99.90;;;;;;5056983;28;20306;-63
2023/01/27 03:13:33;;;;;;;;;;;4.10;99.90;;;;;;5049433;28;19917;-58
2023/01/27 03:18:48;;;;;;;;;;;4.10;99.90;;;;;;5054604;28;19963;-62
2023/01/27 03:21:14;;;;;;;;;;;4.10;99.90;;;;;;5048280;28;19939;-61
2023/01/27 03:23:40;;;;;;;;;;;4.20;99.90;;;;;;5061020;28;20709;-59
2023/01/27 03:26:06;;;;;;;;;;;4.20;99.90;;;;;;5053819;28;19999;-63
2023/01/27 03:28:32;;;;;;;;;;;4.20;99.90;;;;;;5048900;28;20003;-64
2023/01/27 03:31:01;;;;;;;;;;;4.10;99.90;;;;;;5053941;28;20011;-64
2023/01/27 03:33:27;;;;;;;;;;;4.20;99.90;;;;;;5047658;28;19968;-64
2023/01/27 03:46:49;;;;;;;;;;;4.20;99.90;;;;;;5051538;28;19930;-64
2023/01/27 03:49:15;;;;;;;;;;;4.20;99.90;;;;;;5055640;28;19912;-64
2023/01/27 03:51:40;;;;;;;;;;;4.20;99.90;;;;;;5048238;28;19944;-64
2023/01/27 03:54:06;;;;;;;;;;;4.20;99.90;;;;;;5051360;28;19920;-64
2023/01/27 03:56:31;;;;;;;;;;;4.10;99.90;;;;;;5060593;28;19916;-64
2023/01/27 03:58:57;;;;;;;;;;;4.20;99.90;;;;;;5052916;28;19923;-64
2023/01/27 04:01:23;;;;;;;;;;;4.10;99.90;;;;;;5050353;28;19913;-63
2023/01/27 04:09:20;;;;;;;;;;;4.10;99.90;;;;;;5049619;28;20397;-64
2023/01/27 04:11:55;;;;;;;;;;;4.10;99.90;;;;;;5049042;28;19913;-64
2023/01/27 04:14:30;;;;;;;;;;;4.10;99.90;;;;;;5046656;28;19967;-64
2023/01/27 04:16:57;;;;;;;;;;;4.10;99.90;;;;;;5045121;28;20157;-64
2023/01/27 04:21:56;;;;;;;;;;;4.10;99.90;;;;;;5065056;23;19932;-86
2023/01/27 04:24:21;;;;;;;;;;;4.10;99.90;;;;;;5039909;28;20151;-85
2023/01/27 04:26:48;;;;;;;;;;;4.00;99.90;;;;;;5040576;28;19917;-85
2023/01/27 04:29:13;;;;;;;;;;;4.00;99.90;;;;;;5044048;28;19919;-84
2023/01/27 04:31:39;;;;;;;;;;;4.00;99.90;;;;;;5040745;28;20424;-85
2023/01/27 04:34:05;;;;;;;;;;;4.00;99.90;;;;;;5042211;28;19913;-85
2023/01/27 04:36:30;;;;;;;;;;;4.00;99.90;;;;;;5041006;28;19913;-84
2023/01/27 04:38:56;;;;;;;;;;;3.90;99.90;;;;;;5057820;28;20369;-85
2023/01/27 04:41:21;;;;;;;;;;;3.90;99.90;;;;;;5059199;28;19916;-86
2023/01/27 04:43:47;;;;;;;;;;;4.00;99.90;;;;;;5039844;28;19917;-86
2023/01/27 04:46:12;;;;;;;;;;;3.90;99.90;;;;;;5046810;28;20423;-85
2023/01/27 04:48:38;;;;;;;;;;;3.90;99.90;;;;;;5062724;28;20020;-84
2023/01/27 04:51:03;;;;;;;;;;;3.80;99.90;;;;;;5039705;28;19913;-86
2023/01/27 04:53:29;;;;;;;;;;;3.80;99.90;;;;;;5047597;28;19948;-84
2023/01/27 04:55:59;;;;;;;;;;;3.80;99.90;;;;;;5050238;28;19920;-86
2023/01/27 04:58:24;;;;;;;;;;;3.80;99.90;;;;;;5061444;28;19923;-85
2023/01/27 05:00:50;;;;;;;;;;;3.80;99.90;;;;;;5043467;28;19912;-83
2023/01/27 05:03:15;;;;;;;;;;;3.80;99.90;;;;;;5046688;28;19912;-85
2023/01/27 05:05:41;;;;;;;;;;;3.80;99.90;;;;;;5047420;28;19912;-85
2023/01/27 05:08:08;;;;;;;;;;;3.80;99.90;;;;;;5052138;28;20003;-86
2023/01/27 05:10:34;;;;;;;;;;;3.80;99.90;;;;;;5041395;28;19959;-85
2023/01/27 05:13:00;;;;;;;;;;;3.80;99.90;;;;;;5045535;28;19938;-85
2023/01/27 05:15:26;;;;;;;;;;;3.70;99.90;;;;;;5044601;28;19917;-86
2023/01/27 05:17:52;;;;;;;;;;;3.70;99.90;;;;;;5047504;28;20369;-86
2023/01/27 05:20:17;;;;;;;;;;;3.80;99.90;;;;;;5062754;28;19952;-86
2023/01/27 05:22:43;;;;;;;;;;;3.80;99.90;;;;;;5039779;28;19901;-86
2023/01/27 05:25:08;;;;;;;;;;;3.80;99.90;;;;;;5048381;28;19913;-85
2023/01/27 05:27:34;;;;;;;;;;;3.80;99.90;;;;;;5048138;28;19931;-85
2023/01/27 05:29:59;;;;;;;;;;;3.80;99.90;;;;;;5040890;28;19936;-84
2023/01/27 05:32:25;;;;;;;;;;;3.80;99.90;;;;;;5063164;28;19912;-85
2023/01/27 05:34:50;;;;;;;;;;;3.80;99.90;;;;;;5043982;28;19920;-85
2023/01/27 05:37:16;;;;;;;;;;;3.80;99.90;;;;;;5043957;28;20731;-86
2023/01/27 05:39:41;;;;;;;;;;;3.80;99.90;;;;;;5052370;28;19939;-84
2023/01/27 05:42:07;;;;;;;;;;;3.80;99.90;;;;;;5065638;28;19909;-86
2023/01/27 05:44:32;;;;;;;;;;;3.90;99.90;;;;;;5053509;28;19913;-85
2023/01/27 05:46:58;;;;;;;;;;;3.80;99.90;;;;;;5068459;28;19916;-84
2023/01/27 05:49:23;;;;;;;;;;;3.80;99.90;;;;;;5064767;28;19983;-84
2023/01/27 05:51:49;;;;;;;;;;;3.80;99.90;;;;;;5049811;28;19975;-85
2023/01/27 05:54:15;;;;;;;;;;;3.90;99.90;;;;;;5065502;28;20002;-85
2023/01/27 05:56:40;;;;;;;;;;;3.90;99.90;;;;;;5044948;28;19913;-85
2023/01/27 05:59:06;;;;;;;;;;;3.90;99.90;;;;;;5044566;28;21314;-84
2023/01/27 06:01:33;;;;;;;;;;;3.90;99.90;;;;;;5041712;28;19897;-86
2023/01/27 06:03:58;;;;;;;;;;;3.90;99.90;;;;;;5044676;28;19913;-85
2023/01/27 06:06:25;;;;;;;;;;;3.90;99.90;;;;;;5044196;28;19923;-84
2023/01/27 06:08:51;;;;;;;;;;;3.90;99.90;;;;;;5046064;28;19912;-86
2023/01/27 06:11:18;;;;;;;;;;;3.90;99.90;;;;;;5042191;28;19924;-86
2023/01/27 06:13:44;;;;;;;;;;;4.00;99.90;;;;;;5043078;28;19913;-85
2023/01/27 06:16:16;;;;;;;;;;;3.90;99.90;;;;;;5049525;28;19920;-83
2023/01/27 06:18:41;;;;;;;;;;;4.00;99.90;;;;;;5046951;28;19985;-87
2023/01/27 06:21:08;;;;;;;;;;;3.90;99.90;;;;;;5048483;28;19917;-86
2023/01/27 06:23:34;;;;;;;;;;;3.90;99.90;;;;;;5046224;28;19912;-84
2023/01/27 06:26:00;;;;;;;;;;;3.90;99.90;;;;;;5043360;28;19920;-86
2023/01/27 06:28:26;;;;;;;;;;;3.90;99.90;;;;;;5037851;28;20326;-86
2023/01/27 06:30:51;;;;;;;;;;;3.90;99.90;;;;;;5048059;28;19954;-86
2023/01/27 06:33:17;;;;;;;;;;;3.90;99.90;;;;;;5050392;28;19958;-84
2023/01/27 06:35:43;;;;;;;;;;;3.90;99.90;;;;;;5041157;28;20449;-85
2023/01/27 06:38:11;;;;;;;;;;;3.90;99.90;;;;;;5043882;28;19909;-87
2023/01/27 06:40:37;;;;;;;;;;;3.90;99.90;;;;;;5044988;28;19901;-85
2023/01/27 06:43:02;;;;;;;;;;;3.90;99.90;;;;;;5046380;28;19910;-85
2023/01/27 06:45:28;;;;;;;;;;;3.90;99.90;;;;;;5043492;28;19917;-86
2023/01/27 06:47:55;;;;;;;;;;;4.00;99.90;;;;;;5041071;28;20266;-84
2023/01/27 06:50:20;;;;;;;;;;;4.00;99.90;;;;;;5043512;28;19909;-86
2023/01/27 06:52:46;;;;;;;;;;;4.00;99.90;;;;;;5044134;28;19963;-86
2023/01/27 06:55:11;;;;;;;;;;;4.00;99.90;;;;;;5045444;28;19913;-85
2023/01/27 06:57:37;;;;;;;;;;;4.00;99.90;;;;;;5045613;28;19913;-84
2023/01/27 07:00:03;;;;;;;;;;;4.00;99.90;;;;;;5044890;28;19927;-84
2023/01/27 07:02:28;;;;;;;;;;;4.00;99.90;;;;;;5043933;28;19983;-85
2023/01/27 07:04:53;;;;;;;;;;;4.00;99.90;;;;;;5060461;28;19951;-86
2023/01/27 07:07:19;;;;;;;;;;;4.00;99.90;;;;;;5044424;28;19920;-86
2023/01/27 07:09:44;;;;;;;;;;;4.00;99.90;;;;;;5044433;28;19972;-86
2023/01/27 07:12:10;;;;;;;;;;;4.00;99.90;;;;;;5057356;28;20549;-87
2023/01/27 07:14:35;;;;;;;;;;;4.10;99.90;;;;;;5044070;28;20357;-87
2023/01/27 07:17:01;;;;;;;;;;;4.10;99.90;;;;;;5046033;28;19908;-87
2023/01/27 07:19:26;;;;;;;;;;;4.10;99.90;;;;;;5044532;28;19943;-86
2023/01/27 07:21:52;;;;;;;;;;;4.10;99.90;;;;;;5046518;28;19985;-87
2023/01/27 07:24:18;;;;;;;;;;;4.10;99.90;;;;;;5039506;28;19962;-87
2023/01/27 07:26:46;;;;;;;;;;;4.10;99.90;;;;;;5043134;28;19925;-86
2023/01/27 07:29:12;;;;;;;;;;;4.20;99.90;;;;;;5041970;28;19913;-86
2023/01/27 07:31:37;;;;;;;;;;;4.20;99.90;;;;;;5047663;28;19920;-86
2023/01/27 07:34:03;;;;;;;;;;;4.20;99.90;;;;;;5043030;28;19913;-86
2023/01/27 07:36:28;;;;;;;;;;;4.20;99.90;;;;;;5043773;28;19916;-86
2023/01/27 07:38:54;;;;;;;;;;;4.20;99.90;;;;;;5044605;28;19924;-86
2023/01/27 07:41:21;;;;;;;;;;;4.20;99.90;;;;;;5049082;28;19967;-87
2023/01/27 07:43:47;;;;;;;;;;;4.30;99.90;;;;;;5043982;28;19935;-86
2023/01/27 07:46:13;;;;;;;;;;;4.30;99.90;;;;;;5043318;28;20376;-86
2023/01/27 07:48:38;;;;;;;;;;;4.30;99.90;;;;;;5043794;28;19908;-86
2023/01/27 07:51:04;;;;;;;;;;;4.30;99.90;;;;;;5066304;28;19923;-85
2023/01/27 07:53:29;;;;;;;;;;;4.30;99.90;;;;;;5035027;28;19916;-86
2023/01/27 07:55:57;;;;;;;;;;;4.30;99.90;;;;;;5061782;28;19909;-87
2023/01/27 07:58:22;;;;;;;;;;;4.40;99.90;;;;;;5044692;28;19916;-84
2023/01/27 08:00:48;;;;;;;;;;;4.40;99.90;;;;;;5040207;28;19917;-86
2023/01/27 08:03:19;;;;;;;;;;;4.40;99.90;;;;;;5041472;28;20016;-87
2023/01/27 08:05:45;;;;;;;;;;;4.40;99.90;;;;;;5062512;28;19909;-87
2023/01/27 08:08:11;;;;;;;;;;;4.50;99.90;;;;;;5062868;28;20281;-87
2023/01/27 08:10:36;;;;;;;;;;;4.50;99.90;;;;;;5045309;28;19916;-87
2023/01/27 08:13:02;;;;;;;;;;;4.50;99.90;;;;;;5041166;28;20010;-86
2023/01/27 08:15:28;;;;;;;;;;;4.50;99.90;;;;;;5038087;28;19920;-87
2023/01/27 08:17:54;;;;;;;;;;;4.60;99.90;;;;;;5043052;28;19909;-85
2023/01/27 08:20:20;;;;;;;;;;;4.60;99.90;;;;;;5044534;28;19917;-86
2023/01/27 08:22:46;;;;;;;;;;;4.60;99.90;;;;;;5040526;28;20484;-87
2023/01/27 08:25:11;;;;;;;;;;;4.60;99.90;;;;;;5056741;28;19967;-86
2023/01/27 08:27:37;;;;;;;;;;;4.60;99.90;;;;;;5045044;28;19917;-88
2023/01/27 08:30:02;;;;;;;;;;;4.70;99.90;;;;;;5037354;28;20386;-86
2023/01/27 08:32:28;;;;;;;;;;;4.70;99.90;;;;;;5059745;28;19913;-85
2023/01/27 08:34:54;;;;;;;;;;;4.80;99.90;;;;;;5040077;28;19921;-86
2023/01/27 08:37:19;;;;;;;;;;;4.80;99.90;;;;;;5040977;28;19986;-87
2023/01/27 08:39:45;;;;;;;;;;;4.90;99.90;;;;;;5059519;28;19912;-88
2023/01/27 08:42:11;;;;;;;;;;;4.90;99.90;;;;;;5057514;28;19948;-86
2023/01/27 08:44:37;;;;;;;;;;;5.00;99.90;;;;;;5043932;28;19908;-88
2023/01/27 08:47:02;;;;;;;;;;;5.00;99.90;;;;;;5041330;28;19951;-86
2023/01/27 08:49:28;;;;;;;;;;;5.00;99.90;;;;;;5038069;28;19909;-86
2023/01/27 08:51:53;;;;;;;;;;;5.10;99.90;;;;;;5052697;28;19936;-86
2023/01/27 08:54:19;;;;;;;;;;;5.10;99.90;;;;;;5041645;28;19919;-87
2023/01/27 08:56:44;;;;;;;;;;;5.10;99.90;;;;;;5039072;28;19959;-87
2023/01/27 08:59:10;;;;;;;;;;;5.20;99.90;;;;;;5041821;28;19909;-85
2023/01/27 09:01:35;;;;;;;;;;;5.30;99.90;;;;;;5039433;28;19922;-87
2023/01/27 09:04:01;;;;;;;;;;;5.30;99.90;;;;;;5039313;28;19913;-87
2023/01/27 09:06:26;;;;;;;;;;;5.40;99.90;;;;;;5043636;28;19936;-86
2023/01/27 09:09:10;;;;;;;;;;;5.40;99.90;;;;;;5040909;28;19992;-85
2023/01/27 09:11:37;;;;;;;;;;;5.40;99.90;;;;;;5038170;28;20619;-87
2023/01/27 09:14:03;;;;;;;;;;;5.40;99.90;;;;;;5036991;28;19928;-87
2023/01/27 09:16:28;;;;;;;;;;;5.50;99.90;;;;;;5044385;28;19917;-87
2023/01/27 09:18:54;;;;;;;;;;;5.70;99.90;;;;;;5065059;28;19921;-88
2023/01/27 09:21:19;;;;;;;;;;;5.70;99.90;;;;;;5045186;28;19931;-88
2023/01/27 09:23:50;;;;;;;;;;;5.70;99.90;;;;;;5039480;28;19952;-87
2023/01/27 09:26:15;;;;;;;;;;;5.80;99.90;;;;;;5037736;28;19939;-85
2023/01/27 09:28:41;;;;;;;;;;;5.90;99.90;;;;;;5061487;28;19921;-86
2023/01/27 09:31:08;;;;;;;;;;;5.80;99.90;;;;;;5042620;28;19920;-87
2023/01/27 09:33:34;;;;;;;;;;;5.80;99.90;;;;;;5043207;28;19992;-86
2023/01/27 09:36:01;;;;;;;;;;;5.80;99.90;;;;;;5043303;28;20309;-86
2023/01/27 09:38:29;;;;;;;;;;;5.70;99.90;;;;;;5047236;28;19901;-86
2023/01/27 09:41:06;;;;;;;;;;;5.70;99.90;;;;;;5045145;28;19913;-86
2023/01/27 09:43:35;;;;;;;;;;;5.80;99.90;;;;;;5045625;28;19943;-84
2023/01/27 09:46:09;;;;;;;;;;;5.80;99.90;;;;;;5046003;28;19912;-84
2023/01/27 09:48:53;;;;;;;;;;;5.80;99.90;;;;;;5065409;28;19948;-86
2023/01/27 09:51:18;;;;;;;;;;;5.90;99.90;;;;;;5044558;28;19913;-85
2023/01/27 09:54:03;;;;;;;;;;;6.00;99.90;;;;;;5041904;28;19909;-86
2023/01/27 09:56:47;;;;;;;;;;;6.10;99.90;;;;;;5041236;28;19916;-85
2023/01/27 09:59:12;;;;;;;;;;;6.20;99.90;;;;;;5045062;28;19917;-85
2023/01/27 10:01:57;;;;;;;;;;;6.20;99.90;;;;;;5045076;28;19928;-85
2023/01/27 10:04:30;;;;;;;;;;;6.30;99.90;;;;;;5046102;28;19917;-84
2023/01/27 10:07:07;;;;;;;;;;;6.40;99.90;;;;;;5059960;28;19975;-86
2023/01/27 10:09:42;;;;;;;;;;;6.30;99.90;;;;;;5048152;28;20415;-85
2023/01/27 10:12:15;;;;;;;;;;;6.30;99.90;;;;;;5046406;28;19909;-84
2023/01/27 10:14:50;;;;;;;;;;;6.20;99.90;;;;;;5061443;28;19917;-85
2023/01/27 10:17:35;;;;;;;;;;;6.30;99.90;;;;;;5050529;28;19919;-85
2023/01/27 10:20:24;;;;;;;;;;;6.20;99.90;;;;;;5052356;28;19901;-84
2023/01/27 10:22:55;;;;;;;;;;;6.30;99.90;;;;;;5039793;28;19917;-84
2023/01/27 10:25:30;;;;;;;;;;;6.30;99.90;;;;;;5064786;28;19909;-83
2023/01/27 10:27:56;;;;;;;;;;;6.40;99.90;;;;;;5049377;28;19916;-85
2023/01/27 10:30:25;;;;;;;;;;;6.40;99.90;;;;;;5050664;28;19917;-84
2023/01/27 10:32:57;;;;;;;;;;;6.40;99.90;;;;;;5044265;28;19919;-84
2023/01/27 10:35:27;;;;;;;;;;;6.40;99.90;;;;;;5060198;28;19924;-85
2023/01/27 10:37:52;;;;;;;;;;;6.40;99.90;;;;;;5051422;28;19917;-84
2023/01/27 10:40:23;;;;;;;;;;;6.40;99.90;;;;;;5051023;28;19912;-84
2023/01/27 10:42:49;;;;;;;;;;;6.50;99.90;;;;;;5042019;28;19952;-84
2023/01/27 10:45:34;;;;;;;;;;;6.50;99.90;;;;;;5045205;28;19943;-84
2023/01/27 10:48:00;;;;;;;;;;;6.50;99.90;;;;;;5040520;28;19968;-84
2023/01/27 10:50:33;;;;;;;;;;;6.50;99.90;;;;;;5050414;28;20277;-84
2023/01/27 10:53:08;;;;;;;;;;;6.50;99.90;;;;;;5062918;28;19913;-84
2023/01/27 10:55:47;;;;;;;;;;;6.40;99.90;;;;;;5047792;28;19912;-85
2023/01/27 10:58:19;;;;;;;;;;;6.40;99.90;;;;;;5046444;28;19920;-84
2023/01/27 11:00:49;;;;;;;;;;;6.40;99.90;;;;;;5044783;28;19917;-84
2023/01/27 11:03:22;;;;;;;;;;;6.50;99.90;;;;;;5044981;28;19912;-84
2023/01/27 11:05:56;;;;;;;;;;;6.50;99.90;;;;;;5061943;28;19971;-84
2023/01/27 11:08:23;;;;;;;;;;;6.50;99.90;;;;;;5062978;28;19980;-85
2023/01/27 11:13:36;;;;;;;;;;;6.50;99.90;;;;;;5060777;28;19924;-85
2023/01/27 11:16:03;;;;;;;;;;;6.60;99.90;;;;;;5059911;28;19917;-85
2023/01/27 11:18:29;;;;;;;;;;;6.60;99.90;;;;;;5047714;28;19913;-85
2023/01/27 11:20:58;;;;;;;;;;;6.70;99.90;;;;;;5044998;28;19921;-85
2023/01/27 11:23:28;;;;;;;;;;;6.80;99.90;;;;;;5040600;28;19949;-85
2023/01/27 11:26:12;;;;;;;;;;;6.80;99.90;;;;;;5059514;28;19917;-85
2023/01/27 11:28:44;;;;;;;;;;;6.90;99.90;;;;;;5044483;28;19930;-84
2023/01/27 12:11:26;;;;;;;;;;;6.70;99.90;;;;;;5039583;28;19956;-86
2023/01/27 12:13:51;;;;;;;;;;;6.70;99.90;;;;;;5040485;28;19929;-86
2023/01/27 12:16:17;;;;;;;;;;;6.80;99.90;;;;;;5040155;28;20295;-85
2023/01/27 12:18:51;;;;;;;;;;;6.80;99.90;;;;;;5039545;28;20011;-84
2023/01/27 12:21:17;;;;;;;;;;;6.80;99.90;;;;;;5026014;28;19921;-84
2023/01/27 12:23:48;;;;;;;;;;;6.80;99.90;;;;;;5018627;28;20362;-85
2023/01/27 12:26:13;;;;;;;;;;;6.80;99.90;;;;;;5023773;28;19984;-86
2023/01/27 12:28:50;;;;;;;;;;;6.80;99.90;;;;;;5012419;28;20406;-87
2023/01/27 12:31:18;;;;;;;;;;;6.90;99.90;;;;;;5027395;28;19952;-84
2023/01/27 12:33:45;;;;;;;;;;;6.90;99.90;;;;;;5032301;28;19913;-86
2023/01/27 12:36:13;;;;;;;;;;;6.90;99.90;;;;;;5021407;28;19902;-84
2023/01/27 12:38:43;;;;;;;;;;;6.90;99.90;;;;;;5015073;28;19920;-87
2023/01/27 12:41:10;;;;;;;;;;;7.00;99.90;;;;;;5019168;28;19913;-80
2023/01/27 12:43:50;;;;;;;;;;;6.90;99.90;;;;;;5020880;28;19909;-84
2023/01/27 12:46:21;;;;;;;;;;;6.90;99.90;;;;;;5038699;28;19935;-84
2023/01/27 12:48:51;;;;;;;;;;;6.80;99.90;;;;;;5039487;28;19932;-84
2023/01/27 12:51:21;;;;;;;;;;;6.90;99.90;;;;;;5022045;28;20001;-85
2023/01/27 12:53:47;;;;;;;;;;;6.80;99.90;;;;;;5019780;28;19923;-85
2023/01/27 12:56:18;;;;;;;;;;;6.90;99.90;;;;;;5025034;28;19927;-85
2023/01/27 12:58:46;;;;;;;;;;;6.90;99.90;;;;;;5026765;28;19952;-84
2023/01/27 13:01:30;;;;;;;;;;;7.00;99.90;;;;;;5021134;28;20393;-84
2023/01/27 13:03:57;;;;;;;;;;;7.00;99.90;;;;;;5017766;28;19963;-84
2023/01/27 13:06:30;;;;;;;;;;;7.00;99.90;;;;;;5025311;28;20490;-83
2023/01/27 13:08:56;;;;;;;;;;;7.10;99.90;;;;;;5019815;28;19916;-86
2023/01/27 13:11:29;;;;;;;;;;;7.10;99.90;;;;;;5018497;28;21137;-85
2023/01/27 13:13:55;;;;;;;;;;;7.10;99.90;;;;;;5021261;28;19917;-86
2023/01/27 13:16:26;;;;;;;;;;;7.00;99.90;;;;;;5026777;28;19917;-85
2023/01/27 13:18:53;;;;;;;;;;;7.00;99.90;;;;;;5027940;28;19924;-86
2023/01/27 13:21:20;;;;;;;;;;;7.10;99.90;;;;;;5023209;28;20017;-86
2023/01/27 13:23:46;;;;;;;;;;;7.10;99.90;;;;;;5023392;28;19922;-85
2023/01/27 13:26:18;;;;;;;;;;;7.00;99.90;;;;;;5015977;28;19913;-85
2023/01/27 13:29:03;;;;;;;;;;;7.00;99.90;;;;;;5034249;28;20329;-86
2023/01/27 13:31:34;;;;;;;;;;;7.00;99.90;;;;;;5018093;28;19936;-85
2023/01/27 13:33:59;;;;;;;;;;;6.90;99.90;;;;;;5043135;28;19936;-85
2023/01/27 13:36:28;;;;;;;;;;;6.90;99.90;;;;;;5014043;28;20306;-85
2023/01/27 13:38:53;;;;;;;;;;;6.90;99.90;;;;;;5017637;28;19945;-85
2023/01/27 13:41:27;;;;;;;;;;;6.90;99.90;;;;;;5039022;28;20289;-84
2023/01/27 13:44:00;;;;;;;;;;;6.80;99.90;;;;;;5043268;28;19917;-83
2023/01/27 13:46:29;;;;;;;;;;;6.80;99.90;;;;;;5021575;28;19920;-83
2023/01/27 13:48:57;;;;;;;;;;;6.80;99.90;;;;;;5018161;28;19920;-86
2023/01/27 13:51:24;;;;;;;;;;;6.70;99.90;;;;;;5007088;28;19918;-87
2023/01/27 13:53:55;;;;;;;;;;;6.70;99.90;;;;;;5023184;28;19936;-86
2023/01/27 13:56:26;;;;;;;;;;;6.70;99.90;;;;;;5024922;28;19909;-86
2023/01/27 13:59:10;;;;;;;;;;;6.60;99.90;;;;;;5023344;28;19921;-86
2023/01/27 14:01:54;;;;;;;;;;;6.60;99.90;;;;;;5008111;28;19921;-86
2023/01/27 14:04:27;;;;;;;;;;;6.60;99.90;;;;;;5017584;28;19968;-85
2023/01/27 14:06:59;;;;;;;;;;;6.60;99.90;;;;;;5028475;28;19956;-85
2023/01/27 14:09:30;;;;;;;;;;;6.60;99.90;;;;;;5029847;28;19968;-85
2023/01/27 14:11:56;;;;;;;;;;;6.60;99.90;;;;;;5021897;28;20362;-85
2023/01/27 14:14:30;;;;;;;;;;;6.60;99.90;;;;;;5026389;28;19959;-86
2023/01/27 14:17:06;;;;;;;;;;;6.60;99.90;;;;;;5047809;28;20056;-86
2023/01/27 14:19:38;;;;;;;;;;;6.60;99.90;;;;;;5028091;28;20015;-85
2023/01/27 14:22:27;;;;;;;;;;;6.70;99.90;;;;;;5022598;28;19917;-84
2023/01/27 14:25:16;;;;;;;;;;;6.70;99.90;;;;;;5010205;28;19925;-85
2023/01/27 14:27:44;;;;;;;;;;;6.70;99.90;;;;;;5015739;28;19925;-84
2023/01/27 14:30:14;;;;;;;;;;;6.60;99.90;;;;;;5022792;28;19913;-83
2023/01/27 14:32:50;;;;;;;;;;;6.60;99.90;;;;;;5036858;28;19921;-76
2023/01/27 14:35:35;;;;;;;;;;;6.50;99.90;;;;;;5022457;28;20416;-84
2023/01/27 14:38:06;;;;;;;;;;;6.50;99.90;;;;;;5019497;28;19918;-84
2023/01/27 14:40:35;;;;;;;;;;;6.50;99.90;;;;;;5015484;28;19946;-83
2023/01/27 14:43:40;;;;;;;;;;;6.50;99.90;;;;;;5044493;28;19913;-83
2023/01/27 14:46:24;;;;;;;;;;;6.50;99.90;;;;;;4960841;28;20357;-84
2023/01/27 14:49:04;;;;;;;;;;;6.50;99.90;;;;;;4939653;29;19986;-83
2023/01/27 14:51:34;;;;;;;;;;;6.60;99.90;;;;;;4994386;28;19914;-84
2023/01/27 14:53:59;;;;;;;;;;;6.60;99.90;;;;;;5037432;28;19909;-84
2023/01/27 14:56:43;;;;;;;;;;;6.60;99.90;;;;;;5050587;28;19921;-85
2023/01/27 14:59:21;;;;;;;;;;;6.60;99.90;;;;;;5019087;28;19913;-85
2023/01/27 15:02:12;;;;;;;;;;;6.60;99.90;;;;;;5010911;28;19924;-85
2023/01/27 15:04:54;;;;;;;;;;;6.70;99.90;;;;;;5019758;28;19920;-84
2023/01/27 15:07:29;;;;;;;;;;;6.70;99.90;;;;;;5032300;28;19943;-86
2023/01/27 15:09:54;;;;;;;;;;;6.60;99.90;;;;;;5041000;28;19909;-85
2023/01/27 15:12:29;;;;;;;;;;;6.60;99.90;;;;;;5023641;28;19928;-85
2023/01/27 15:14:56;;;;;;;;;;;6.50;99.90;;;;;;5013614;28;19924;-85
2023/01/27 15:17:22;;;;;;;;;;;6.40;99.90;;;;;;5013055;28;19977;-85
2023/01/27 15:19:58;;;;;;;;;;;6.30;99.90;;;;;;5021938;28;19913;-85
2023/01/27 15:22:30;;;;;;;;;;;6.30;99.90;;;;;;5020602;28;19925;-83
2023/01/27 15:24:56;;;;;;;;;;;6.30;99.90;;;;;;5022961;28;19917;-84
2023/01/27 15:27:22;;;;;;;;;;;6.30;99.90;;;;;;5020919;28;20024;-82
2023/01/27 15:29:48;;;;;;;;;;;6.20;99.90;;;;;;5015287;28;19913;-84
2023/01/27 15:32:16;;;;;;;;;;;6.20;99.90;;;;;;5022381;28;19991;-82
2023/01/27 15:34:43;;;;;;;;;;;6.10;99.90;;;;;;5015196;28;19909;-83
2023/01/27 15:37:08;;;;;;;;;;;6.10;99.90;;;;;;5021131;28;19921;-78
2023/01/27 15:39:52;;;;;;;;;;;6.10;99.90;;;;;;5036807;28;19913;-83
2023/01/27 15:42:24;;;;;;;;;;;6.00;99.90;;;;;;5022240;28;19920;-82
2023/01/27 15:44:58;;;;;;;;;;;6.00;99.90;;;;;;5016939;28;19913;-85
2023/01/27 15:47:27;;;;;;;;;;;6.00;99.90;;;;;;5008108;28;20378;-85
2023/01/27 15:49:56;;;;;;;;;;;6.10;99.90;;;;;;5037144;28;19914;-85
2023/01/27 15:52:27;;;;;;;;;;;6.00;99.90;;;;;;5017400;28;19909;-84